Time;durP1;ratioP1;P1;durP2;ratioP2;P2;SDS_P1;SDS_P2;PMS_P1;PMS_P2;Temp;Humidity;BMP_temperature;BMP_pressure;BME280_temperature;BME280_humidity;BME280_pressure;Samples;Min_cycle;Max_cycle;Signal;HPM_P1;HPM_P2
2023/03/23 00:00:06;;;;;;;;;;;;;;;;;;1035361;28;1670;-53
2023/03/23 00:00:37;;;;;;;;;;;;;;;;;;1032691;28;4014;-52
2023/03/23 00:01:21;;;;;;;;;;;;;;;;;;1034307;28;1786;-51
2023/03/23 00:01:52;;;;;;;;;;;;;;;;;;1034454;28;4080;-54
2023/03/23 00:02:29;;;;;;;;;;;;;;;;;;1034559;28;1745;-52
2023/03/23 00:02:59;;;;;;;;;;;;;;;;;;1034783;28;3765;-50
2023/03/23 00:03:31;;;;;;;;;;;;;;;;;;1034364;28;3978;-52
2023/03/23 00:04:01;;;;;;;;;;;;;;;;;;1031440;28;3421;-50
2023/03/23 00:04:32;;;;;;;;;;;;;;;;;;1030829;28;3954;-53
2023/03/23 00:05:03;;;;;;;;;;;;;;;;;;1032727;28;2703;-54
2023/03/23 00:05:36;;;;;;;;;;;;;;;;;;1030406;28;3838;-53
2023/03/23 00:06:07;;;;;;;;;;;;;;;;;;1034872;28;1593;-52
2023/03/23 00:06:38;;;;;;;;;;;;;;;;;;1032797;28;4000;-54
2023/03/23 00:07:08;;;;;;;;;;;;;;;;;;1033324;28;1801;-52
2023/03/23 00:07:45;;;;;;;;;;;;;;;;;;1032657;28;4065;-54
2023/03/23 00:08:22;;;;;;;;;;;;;;;;;;1035165;28;1642;-53
2023/03/23 00:08:56;;;;;;;;;;;;;;;;;;1033253;28;3828;-54
2023/03/23 00:09:26;;;;;;;;;;;;;;;;;;1034493;28;3895;-52
2023/03/23 00:09:56;;;;;;;;;;;;;;;;;;1033864;28;2185;-51
2023/03/23 00:10:27;;;;;;;;;;;;;;;;;;1033913;28;3890;-51
2023/03/23 00:10:57;;;;;;;;;;;;;;;;;;1033608;28;1906;-52
2023/03/23 00:11:29;;;;;;;;;;;;;;;;;;1033835;28;4128;-55
2023/03/23 00:12:05;;;;;;;;;;;;;;;;;;1033949;28;2158;-54
2023/03/23 00:12:35;;;;;;;;;;;;;;;;;;1034813;28;4099;-51
2023/03/23 00:13:06;;;;;;;;;;;;;;;;;;1033270;28;2816;-53
2023/03/23 00:13:36;;;;;;;;;;;;;;;;;;1034123;28;3876;-55
2023/03/23 00:14:12;;;;;;;;;;;;;;;;;;1031738;28;2738;-55
2023/03/23 00:14:42;;;;;;;;;;;;;;;;;;1032144;28;4029;-52
2023/03/23 00:15:16;;;;;;;;;;;;;;;;;;1032274;28;2164;-54
2023/03/23 00:15:48;;;;;;;;;;;;;;;;;;1034129;28;4183;-52
2023/03/23 00:16:20;;;;;;;;;;;;;;;;;;1030249;28;3194;-51
2023/03/23 00:16:50;;;;;;;;;;;;;;;;;;1033270;28;3999;-51
2023/03/23 00:17:20;;;;;;;;;;;;;;;;;;1034122;28;1795;-53
2023/03/23 00:17:51;;;;;;;;;;;;;;;;;;1033064;28;4154;-54
2023/03/23 00:18:22;;;;;;;;;;;;;;;;;;1033860;28;2729;-52
2023/03/23 00:18:52;;;;;;;;;;;;;;;;;;1033204;28;4012;-51
2023/03/23 00:19:23;;;;;;;;;;;;;;;;;;1033691;28;1743;-54
2023/03/23 00:19:53;;;;;;;;;;;;;;;;;;1031158;28;4242;-53
2023/03/23 00:20:24;;;;;;;;;;;;;;;;;;1034178;28;2063;-51
2023/03/23 00:20:55;;;;;;;;;;;;;;;;;;1032980;28;4110;-51
2023/03/23 00:21:34;;;;;;;;;;;;;;;;;;1033260;28;4073;-51
2023/03/23 00:22:06;;;;;;;;;;;;;;;;;;1029406;28;3330;-53
2023/03/23 00:22:37;;;;;;;;;;;;;;;;;;1029599;28;4071;-51
2023/03/23 00:23:07;;;;;;;;;;;;;;;;;;1031589;28;3190;-53
2023/03/23 00:23:39;;;;;;;;;;;;;;;;;;1033920;28;4331;-51
2023/03/23 00:24:10;;;;;;;;;;;;;;;;;;1030903;28;2981;-51
2023/03/23 00:24:41;;;;;;;;;;;;;;;;;;1033392;28;4060;-55
2023/03/23 00:25:12;;;;;;;;;;;;;;;;;;1033647;28;2903;-54
2023/03/23 00:25:42;;;;;;;;;;;;;;;;;;1031659;28;4454;-53
2023/03/23 00:26:13;;;;;;;;;;;;;;;;;;1033820;28;2966;-53
2023/03/23 00:26:45;;;;;;;;;;;;;;;;;;1034549;28;4967;-52
2023/03/23 00:27:15;;;;;;;;;;;;;;;;;;1034051;28;1874;-52
2023/03/23 00:27:46;;;;;;;;;;;;;;;;;;1031120;28;3996;-53
2023/03/23 00:28:16;;;;;;;;;;;;;;;;;;1034486;28;2635;-50
2023/03/23 00:28:46;;;;;;;;;;;;;;;;;;1033799;28;3889;-53
2023/03/23 00:29:19;;;;;;;;;;;;;;;;;;1033524;28;1651;-52
2023/03/23 00:29:55;;;;;;;;;;;;;;;;;;1030378;28;3885;-55
2023/03/23 00:30:25;;;;;;;;;;;;;;;;;;1034814;28;2818;-55
2023/03/23 00:30:56;;;;;;;;;;;;;;;;;;1034439;28;3955;-53
2023/03/23 00:31:35;;;;;;;;;;;;;;;;;;1038208;28;4030;-53
2023/03/23 00:32:05;;;;;;;;;;;;;;;;;;1034469;28;3560;-53
2023/03/23 00:32:35;;;;;;;;;;;;;;;;;;1030159;28;4066;-52
2023/03/23 00:33:06;;;;;;;;;;;;;;;;;;1032433;28;2590;-52
2023/03/23 00:33:40;;;;;;;;;;;;;;;;;;1033822;28;4019;-53
2023/03/23 00:34:12;;;;;;;;;;;;;;;;;;1031859;28;2603;-53
2023/03/23 00:34:43;;;;;;;;;;;;;;;;;;1036168;28;4023;-55
2023/03/23 00:35:14;;;;;;;;;;;;;;;;;;1037356;28;2794;-56
2023/03/23 00:35:44;;;;;;;;;;;;;;;;;;1036649;28;4046;-53
2023/03/23 00:36:14;;;;;;;;;;;;;;;;;;1039007;28;1905;-54
2023/03/23 00:36:49;;;;;;;;;;;;;;;;;;1035664;28;3902;-52
2023/03/23 00:37:19;;;;;;;;;;;;;;;;;;1038435;28;2696;-54
2023/03/23 00:37:49;;;;;;;;;;;;;;;;;;1035796;28;4106;-55
2023/03/23 00:38:23;;;;;;;;;;;;;;;;;;1035899;28;1823;-54
2023/03/23 00:38:53;;;;;;;;;;;;;;;;;;1038562;28;3831;-53
2023/03/23 00:39:25;;;;;;;;;;;;;;;;;;1036252;28;2809;-55
2023/03/23 00:39:57;;;;;;;;;;;;;;;;;;1032995;28;3743;-53
2023/03/23 00:40:27;;;;;;;;;;;;;;;;;;1037485;28;4046;-51
2023/03/23 00:41:02;;;;;;;;;;;;;;;;;;1034293;28;2790;-53
2023/03/23 00:41:36;;;;;;;;;;;;;;;;;;1037611;28;4166;-51
2023/03/23 00:42:06;;;;;;;;;;;;;;;;;;1037148;28;2792;-53
2023/03/23 00:42:37;;;;;;;;;;;;;;;;;;1038115;28;3791;-52
2023/03/23 00:43:08;;;;;;;;;;;;;;;;;;1036983;28;1979;-53
2023/03/23 00:43:38;;;;;;;;;;;;;;;;;;1038819;28;4004;-54
2023/03/23 00:44:09;;;;;;;;;;;;;;;;;;1037542;28;2956;-54
2023/03/23 00:44:39;;;;;;;;;;;;;;;;;;1037401;28;4052;-53
2023/03/23 00:45:10;;;;;;;;;;;;;;;;;;1037013;28;2830;-51
2023/03/23 00:45:41;;;;;;;;;;;;;;;;;;1036400;28;4143;-53
2023/03/23 00:46:11;;;;;;;;;;;;;;;;;;1038994;28;1846;-52
2023/03/23 00:46:44;;;;;;;;;;;;;;;;;;1037939;28;4017;-55
2023/03/23 00:47:17;;;;;;;;;;;;;;;;;;1038165;28;1828;-50
2023/03/23 00:47:50;;;;;;;;;;;;;;;;;;1037798;28;4093;-52
2023/03/23 00:48:24;;;;;;;;;;;;;;;;;;1037625;28;1617;-50
2023/03/23 00:48:56;;;;;;;;;;;;;;;;;;1037867;28;4042;-54
2023/03/23 00:49:27;;;;;;;;;;;;;;;;;;1037557;28;4106;-53
2023/03/23 00:49:57;;;;;;;;;;;;;;;;;;1037726;28;2725;-51
2023/03/23 00:50:27;;;;;;;;;;;;;;;;;;1036634;28;3914;-51
2023/03/23 00:50:58;;;;;;;;;;;;;;;;;;1037733;28;2745;-54
2023/03/23 00:51:28;;;;;;;;;;;;;;;;;;1038124;28;4080;-52
2023/03/23 00:51:58;;;;;;;;;;;;;;;;;;1038418;28;1764;-51
2023/03/23 00:52:28;;;;;;;;;;;;;;;;;;1038728;28;3875;-54
2023/03/23 00:52:59;;;;;;;;;;;;;;;;;;1039003;28;1825;-55
2023/03/23 00:53:29;;;;;;;;;;;;;;;;;;1035786;28;4083;-51
2023/03/23 00:54:00;;;;;;;;;;;;;;;;;;1037640;28;2639;-54
2023/03/23 00:54:30;;;;;;;;;;;;;;;;;;1038529;28;4045;-52
2023/03/23 00:55:00;;;;;;;;;;;;;;;;;;1037177;28;2683;-54
2023/03/23 00:55:31;;;;;;;;;;;;;;;;;;1038907;28;4044;-52
2023/03/23 00:56:01;;;;;;;;;;;;;;;;;;1036853;28;2691;-53
2023/03/23 00:56:31;;;;;;;;;;;;;;;;;;1037935;28;4263;-54
2023/03/23 00:57:02;;;;;;;;;;;;;;;;;;1039074;28;1709;-53
2023/03/23 00:57:32;;;;;;;;;;;;;;;;;;1037371;28;3989;-54
2023/03/23 00:58:02;;;;;;;;;;;;;;;;;;1038661;28;1903;-52
2023/03/23 00:58:32;;;;;;;;;;;;;;;;;;1036618;28;4100;-52
2023/03/23 00:59:03;;;;;;;;;;;;;;;;;;1037461;28;2918;-52
2023/03/23 00:59:33;;;;;;;;;;;;;;;;;;1036872;28;4175;-53
2023/03/23 01:00:10;;;;;;;;;;;;;;;;;;1038015;28;2886;-54
2023/03/23 01:00:41;;;;;;;;;;;;;;;;;;1039100;28;4087;-51
2023/03/23 01:01:11;;;;;;;;;;;;;;;;;;1039424;28;1681;-54
2023/03/23 01:01:42;;;;;;;;;;;;;;;;;;1038296;28;4100;-52
2023/03/23 01:02:12;;;;;;;;;;;;;;;;;;1038576;28;1724;-54
2023/03/23 01:02:44;;;;;;;;;;;;;;;;;;1038232;28;3802;-52
2023/03/23 01:03:17;;;;;;;;;;;;;;;;;;1038716;28;1348;-54
2023/03/23 01:03:49;;;;;;;;;;;;;;;;;;1035776;28;3788;-50
2023/03/23 01:04:19;;;;;;;;;;;;;;;;;;1035748;28;3363;-53
2023/03/23 01:04:52;;;;;;;;;;;;;;;;;;1036160;28;4106;-51
2023/03/23 01:05:22;;;;;;;;;;;;;;;;;;1038795;28;1932;-53
2023/03/23 01:05:52;;;;;;;;;;;;;;;;;;1037497;28;3981;-54
2023/03/23 01:06:23;;;;;;;;;;;;;;;;;;1036581;28;3012;-54
2023/03/23 01:06:54;;;;;;;;;;;;;;;;;;1037912;28;4014;-51
2023/03/23 01:07:24;;;;;;;;;;;;;;;;;;1038288;28;1964;-53
2023/03/23 01:07:54;;;;;;;;;;;;;;;;;;1038039;28;3834;-53
2023/03/23 01:08:25;;;;;;;;;;;;;;;;;;1038281;28;2090;-50
2023/03/23 01:08:56;;;;;;;;;;;;;;;;;;1037758;28;4026;-53
2023/03/23 01:09:26;;;;;;;;;;;;;;;;;;1038394;28;3932;-52
2023/03/23 01:09:57;;;;;;;;;;;;;;;;;;1037862;28;1918;-52
2023/03/23 01:10:28;;;;;;;;;;;;;;;;;;1038038;28;4087;-52
2023/03/23 01:11:03;;;;;;;;;;;;;;;;;;1036919;28;2816;-53
2023/03/23 01:11:34;;;;;;;;;;;;;;;;;;1038108;28;3924;-54
2023/03/23 01:12:04;;;;;;;;;;;;;;;;;;1038307;28;2919;-54
2023/03/23 01:12:34;;;;;;;;;;;;;;;;;;1038936;28;4053;-52
2023/03/23 01:13:05;;;;;;;;;;;;;;;;;;1037171;28;1710;-52
2023/03/23 01:13:36;;;;;;;;;;;;;;;;;;1036357;28;4144;-55
2023/03/23 01:14:06;;;;;;;;;;;;;;;;;;1035533;28;3152;-54
2023/03/23 01:14:37;;;;;;;;;;;;;;;;;;1037329;28;3894;-51
2023/03/23 01:15:07;;;;;;;;;;;;;;;;;;1034416;28;2934;-53
2023/03/23 01:15:38;;;;;;;;;;;;;;;;;;1036473;28;4039;-51
2023/03/23 01:16:09;;;;;;;;;;;;;;;;;;1038567;28;1233;-50
2023/03/23 01:16:39;;;;;;;;;;;;;;;;;;1038190;28;3907;-53
2023/03/23 01:17:10;;;;;;;;;;;;;;;;;;1037024;28;2262;-55
2023/03/23 01:17:41;;;;;;;;;;;;;;;;;;1033205;28;4100;-55
2023/03/23 01:18:11;;;;;;;;;;;;;;;;;;1036798;28;3127;-55
2023/03/23 01:18:41;;;;;;;;;;;;;;;;;;1035422;28;4049;-53
2023/03/23 01:19:12;;;;;;;;;;;;;;;;;;1033950;28;2962;-51
2023/03/23 01:19:42;;;;;;;;;;;;;;;;;;1034668;28;3858;-53
2023/03/23 01:20:14;;;;;;;;;;;;;;;;;;1037208;28;2691;-53
2023/03/23 01:20:44;;;;;;;;;;;;;;;;;;1033380;28;4061;-53
2023/03/23 01:21:16;;;;;;;;;;;;;;;;;;1036824;28;2949;-54
2023/03/23 01:21:47;;;;;;;;;;;;;;;;;;1034617;28;3877;-52
2023/03/23 01:22:17;;;;;;;;;;;;;;;;;;1035924;28;1905;-50
2023/03/23 01:22:47;;;;;;;;;;;;;;;;;;1037759;28;3737;-54
2023/03/23 01:23:18;;;;;;;;;;;;;;;;;;1036819;28;2754;-53
2023/03/23 01:23:48;;;;;;;;;;;;;;;;;;1036843;28;4208;-56
2023/03/23 01:24:18;;;;;;;;;;;;;;;;;;1035848;28;2824;-52
2023/03/23 01:24:49;;;;;;;;;;;;;;;;;;1036472;28;3788;-52
2023/03/23 01:25:19;;;;;;;;;;;;;;;;;;1035455;28;3193;-54
2023/03/23 01:25:50;;;;;;;;;;;;;;;;;;1036406;28;4053;-52
2023/03/23 01:26:22;;;;;;;;;;;;;;;;;;1036772;28;2331;-54
2023/03/23 01:26:52;;;;;;;;;;;;;;;;;;1036633;28;3732;-53
2023/03/23 01:27:22;;;;;;;;;;;;;;;;;;1035630;28;2853;-53
2023/03/23 01:27:52;;;;;;;;;;;;;;;;;;1038086;28;3856;-53
2023/03/23 01:28:23;;;;;;;;;;;;;;;;;;1036719;28;3259;-52
2023/03/23 01:28:53;;;;;;;;;;;;;;;;;;1035740;28;4130;-53
2023/03/23 01:29:24;;;;;;;;;;;;;;;;;;1036957;28;3016;-52
2023/03/23 01:29:54;;;;;;;;;;;;;;;;;;1037017;28;3898;-52
2023/03/23 01:30:25;;;;;;;;;;;;;;;;;;1038042;28;3011;-53
2023/03/23 01:30:59;;;;;;;;;;;;;;;;;;1036719;28;3944;-50
2023/03/23 01:31:29;;;;;;;;;;;;;;;;;;1036057;28;4035;-54
2023/03/23 01:31:59;;;;;;;;;;;;;;;;;;1035116;28;2781;-52
2023/03/23 01:32:30;;;;;;;;;;;;;;;;;;1037886;28;3811;-51
2023/03/23 01:33:00;;;;;;;;;;;;;;;;;;1036876;28;2773;-52
2023/03/23 01:33:30;;;;;;;;;;;;;;;;;;1036907;28;4068;-54
2023/03/23 01:34:01;;;;;;;;;;;;;;;;;;1036165;28;3100;-54
2023/03/23 01:34:31;;;;;;;;;;;;;;;;;;1034953;28;3842;-51
2023/03/23 01:35:01;;;;;;;;;;;;;;;;;;1036693;28;2196;-53
2023/03/23 01:35:32;;;;;;;;;;;;;;;;;;1037013;28;4452;-52
2023/03/23 01:36:04;;;;;;;;;;;;;;;;;;1037976;28;2884;-52
2023/03/23 01:36:35;;;;;;;;;;;;;;;;;;1033408;28;3830;-54
2023/03/23 01:37:05;;;;;;;;;;;;;;;;;;1038088;28;1590;-53
2023/03/23 01:37:36;;;;;;;;;;;;;;;;;;1035714;28;3921;-52
2023/03/23 01:38:06;;;;;;;;;;;;;;;;;;1037821;28;2990;-53
2023/03/23 01:38:37;;;;;;;;;;;;;;;;;;1034444;28;4075;-52
2023/03/23 01:39:07;;;;;;;;;;;;;;;;;;1037941;28;2704;-53
2023/03/23 01:39:38;;;;;;;;;;;;;;;;;;1036913;28;4274;-53
2023/03/23 01:40:09;;;;;;;;;;;;;;;;;;1038110;28;1646;-51
2023/03/23 01:40:39;;;;;;;;;;;;;;;;;;1037460;28;4521;-53
2023/03/23 01:41:09;;;;;;;;;;;;;;;;;;1037546;28;1832;-54
2023/03/23 01:41:41;;;;;;;;;;;;;;;;;;1036194;28;4042;-54
2023/03/23 01:42:11;;;;;;;;;;;;;;;;;;1036520;28;3057;-52
2023/03/23 01:42:41;;;;;;;;;;;;;;;;;;1035877;28;3975;-51
2023/03/23 01:43:13;;;;;;;;;;;;;;;;;;1037709;28;2487;-54
2023/03/23 01:44:13;;;;;;;;;;;;;;;;;;1037285;28;4030;-55
2023/03/23 01:44:46;;;;;;;;;;;;;;;;;;1035308;28;4093;-52
2023/03/23 01:45:19;;;;;;;;;;;;;;;;;;1036178;28;3152;-53
2023/03/23 01:45:49;;;;;;;;;;;;;;;;;;1039633;28;4065;-53
2023/03/23 01:46:22;;;;;;;;;;;;;;;;;;1034854;28;3358;-54
2023/03/23 01:46:54;;;;;;;;;;;;;;;;;;1035773;28;3980;-52
2023/03/23 01:47:26;;;;;;;;;;;;;;;;;;1035983;28;1957;-53
2023/03/23 01:48:04;;;;;;;;;;;;;;;;;;1038722;28;3908;-53
2023/03/23 01:48:38;;;;;;;;;;;;;;;;;;1035516;28;4208;-52
2023/03/23 01:49:21;;;;;;;;;;;;;;;;;;1035010;28;2757;-52
2023/03/23 01:49:51;;;;;;;;;;;;;;;;;;1037554;28;4084;-51
2023/03/23 01:50:23;;;;;;;;;;;;;;;;;;1039212;28;1614;-52
2023/03/23 01:50:56;;;;;;;;;;;;;;;;;;1031976;28;3895;-51
2023/03/23 01:51:27;;;;;;;;;;;;;;;;;;1030393;28;3911;-51
2023/03/23 01:52:06;;;;;;;;;;;;;;;;;;1032472;28;2800;-51
2023/03/23 01:52:36;;;;;;;;;;;;;;;;;;1034606;28;4207;-52
2023/03/23 01:53:08;;;;;;;;;;;;;;;;;;1033876;28;1963;-53
2023/03/23 01:53:42;;;;;;;;;;;;;;;;;;1032841;28;4603;-54
2023/03/23 01:54:13;;;;;;;;;;;;;;;;;;1034605;28;1742;-53
2023/03/23 01:54:46;;;;;;;;;;;;;;;;;;1034065;28;4090;-55
2023/03/23 01:55:16;;;;;;;;;;;;;;;;;;1034492;28;1616;-53
2023/03/23 01:55:50;;;;;;;;;;;;;;;;;;1032289;28;4116;-55
2023/03/23 01:56:24;;;;;;;;;;;;;;;;;;1033901;28;2289;-51
2023/03/23 01:57:03;;;;;;;;;;;;;;;;;;1033982;28;3883;-52
2023/03/23 01:57:33;;;;;;;;;;;;;;;;;;1033343;28;3769;-54
2023/03/23 01:58:04;;;;;;;;;;;;;;;;;;1034390;28;1778;-52
2023/03/23 01:58:36;;;;;;;;;;;;;;;;;;1033890;28;4144;-55
2023/03/23 01:59:08;;;;;;;;;;;;;;;;;;1033283;28;2815;-52
2023/03/23 01:59:42;;;;;;;;;;;;;;;;;;1033120;28;4104;-52
2023/03/23 02:00:15;;;;;;;;;;;;;;;;;;1034803;28;1428;-53
2023/03/23 02:00:47;;;;;;;;;;;;;;;;;;1035126;28;3783;-51
2023/03/23 02:01:18;;;;;;;;;;;;;;;;;;1034653;28;2709;-51
2023/03/23 02:01:48;;;;;;;;;;;;;;;;;;1034357;28;3807;-53
2023/03/23 02:02:20;;;;;;;;;;;;;;;;;;1036090;28;1816;-51
2023/03/23 02:02:52;;;;;;;;;;;;;;;;;;1034929;28;3830;-51
2023/03/23 02:03:23;;;;;;;;;;;;;;;;;;1033363;28;2836;-55
2023/03/23 02:03:55;;;;;;;;;;;;;;;;;;1034932;28;3823;-51
2023/03/23 02:04:26;;;;;;;;;;;;;;;;;;1035274;28;4073;-54
2023/03/23 02:04:59;;;;;;;;;;;;;;;;;;1035436;28;1766;-52
2023/03/23 02:05:31;;;;;;;;;;;;;;;;;;1032942;28;4035;-53
2023/03/23 02:06:02;;;;;;;;;;;;;;;;;;1030786;28;2526;-55
2023/03/23 02:06:33;;;;;;;;;;;;;;;;;;1033272;28;4058;-53
2023/03/23 02:07:03;;;;;;;;;;;;;;;;;;1032028;28;2415;-50
2023/03/23 02:07:34;;;;;;;;;;;;;;;;;;1033397;28;4140;-54
2023/03/23 02:08:06;;;;;;;;;;;;;;;;;;1035480;28;1694;-53
2023/03/23 02:08:37;;;;;;;;;;;;;;;;;;1032786;28;4138;-53
2023/03/23 02:09:07;;;;;;;;;;;;;;;;;;1030402;28;3375;-53
2023/03/23 02:09:37;;;;;;;;;;;;;;;;;;1033676;28;3977;-53
2023/03/23 02:10:09;;;;;;;;;;;;;;;;;;1033732;28;1933;-55
2023/03/23 02:10:40;;;;;;;;;;;;;;;;;;1032747;28;3957;-51
2023/03/23 02:11:14;;;;;;;;;;;;;;;;;;1035243;28;2357;-52
2023/03/23 02:11:45;;;;;;;;;;;;;;;;;;1034641;28;3884;-55
2023/03/23 02:12:15;;;;;;;;;;;;;;;;;;1033408;28;2193;-52
2023/03/23 02:12:46;;;;;;;;;;;;;;;;;;1034231;28;3875;-56
2023/03/23 02:13:16;;;;;;;;;;;;;;;;;;1032070;28;2746;-53
2023/03/23 02:13:47;;;;;;;;;;;;;;;;;;1033248;28;4125;-53
2023/03/23 02:14:18;;;;;;;;;;;;;;;;;;1033438;28;2784;-50
2023/03/23 02:14:48;;;;;;;;;;;;;;;;;;1033793;28;3929;-51
2023/03/23 02:15:18;;;;;;;;;;;;;;;;;;1031286;28;3053;-53
2023/03/23 02:15:49;;;;;;;;;;;;;;;;;;1035511;28;3868;-54
2023/03/23 02:16:19;;;;;;;;;;;;;;;;;;1033219;28;2407;-54
2023/03/23 02:17:10;;;;;;;;;;;;;;;;;;1035374;28;3836;-52
2023/03/23 02:17:40;;;;;;;;;;;;;;;;;;1033565;28;4145;-53
2023/03/23 02:18:29;;;;;;;;;;;;;;;;;;1035519;28;1307;-55
2023/03/23 02:19:02;;;;;;;;;;;;;;;;;;1034104;28;3935;-52
2023/03/23 02:19:32;;;;;;;;;;;;;;;;;;1034189;28;4025;-55
2023/03/23 02:20:13;;;;;;;;;;;;;;;;;;1034118;28;2787;-53
2023/03/23 02:20:55;;;;;;;;;;;;;;;;;;1032858;28;3959;-54
2023/03/23 02:21:36;;;;;;;;;;;;;;;;;;1034231;28;4214;-50
2023/03/23 02:22:19;;;;;;;;;;;;;;;;;;1034374;28;1790;-53
2023/03/23 02:23:08;;;;;;;;;;;;;;;;;;1032101;28;4060;-56
2023/03/23 02:23:57;;;;;;;;;;;;;;;;;;1031512;28;4026;-51
2023/03/23 02:24:46;;;;;;;;;;;;;;;;;;1032826;28;3916;-53
2023/03/23 02:25:19;;;;;;;;;;;;;;;;;;1035638;28;1747;-51
2023/03/23 02:25:56;;;;;;;;;;;;;;;;;;1035041;28;3710;-51
2023/03/23 02:26:34;;;;;;;;;;;;;;;;;;1030555;28;3875;-54
2023/03/23 02:27:11;;;;;;;;;;;;;;;;;;1035100;28;3155;-52
2023/03/23 02:28:02;;;;;;;;;;;;;;;;;;1034097;28;4063;-52
2023/03/23 02:28:35;;;;;;;;;;;;;;;;;;1033417;28;3909;-50
2023/03/23 02:29:13;;;;;;;;;;;;;;;;;;1033295;28;2782;-52
2023/03/23 02:30:10;;;;;;;;;;;;;;;;;;1033952;28;4371;-51
2023/03/23 02:30:43;;;;;;;;;;;;;;;;;;1028631;28;4218;-52
2023/03/23 02:31:38;;;;;;;;;;;;;;;;;;1030598;28;1685;-52
2023/03/23 02:32:11;;;;;;;;;;;;;;;;;;1035665;28;3682;-54
2023/03/23 02:32:56;;;;;;;;;;;;;;;;;;1033009;28;3877;-53
2023/03/23 02:33:30;;;;;;;;;;;;;;;;;;1033883;28;3935;-55
2023/03/23 02:34:20;;;;;;;;;;;;;;;;;;1033022;28;2474;-53
2023/03/23 02:34:52;;;;;;;;;;;;;;;;;;1032238;28;4191;-50
2023/03/23 02:35:35;;;;;;;;;;;;;;;;;;1033002;28;2244;-51
2023/03/23 02:36:19;;;;;;;;;;;;;;;;;;1033828;28;3816;-54
2023/03/23 02:36:55;;;;;;;;;;;;;;;;;;1033507;28;4258;-54
2023/03/23 02:37:46;;;;;;;;;;;;;;;;;;1034123;28;2342;-52
2023/03/23 02:38:19;;;;;;;;;;;;;;;;;;1034571;28;3647;-53
2023/03/23 02:39:05;;;;;;;;;;;;;;;;;;1030355;28;4049;-54
2023/03/23 02:39:56;;;;;;;;;;;;;;;;;;1033851;28;4417;-54
2023/03/23 02:40:38;;;;;;;;;;;;;;;;;;1032428;28;3973;-53
2023/03/23 02:41:10;;;;;;;;;;;;;;;;;;1033031;28;2715;-56
2023/03/23 02:42:01;;;;;;;;;;;;;;;;;;1034605;28;3888;-51
2023/03/23 02:42:32;;;;;;;;;;;;;;;;;;1033577;28;3932;-52
2023/03/23 02:43:03;;;;;;;;;;;;;;;;;;1034505;28;1845;-51
2023/03/23 02:43:38;;;;;;;;;;;;;;;;;;1033119;28;4451;-54
2023/03/23 02:44:08;;;;;;;;;;;;;;;;;;1035633;28;1407;-52
2023/03/23 02:44:40;;;;;;;;;;;;;;;;;;1033720;28;4134;-54
2023/03/23 02:45:11;;;;;;;;;;;;;;;;;;1032439;28;2657;-53
2023/03/23 02:45:43;;;;;;;;;;;;;;;;;;1034426;28;3863;-53
2023/03/23 02:46:15;;;;;;;;;;;;;;;;;;1033954;28;2562;-53
2023/03/23 02:46:46;;;;;;;;;;;;;;;;;;1031812;28;4043;-54
2023/03/23 02:47:22;;;;;;;;;;;;;;;;;;1031680;28;2815;-55
2023/03/23 02:47:53;;;;;;;;;;;;;;;;;;1034194;28;3876;-55
2023/03/23 02:48:26;;;;;;;;;;;;;;;;;;1033514;28;2697;-54
2023/03/23 02:48:58;;;;;;;;;;;;;;;;;;1032576;28;4007;-53
2023/03/23 02:49:30;;;;;;;;;;;;;;;;;;1033899;28;3898;-51
2023/03/23 02:50:01;;;;;;;;;;;;;;;;;;1033236;28;3074;-53
2023/03/23 02:50:32;;;;;;;;;;;;;;;;;;1032236;28;4394;-52
2023/03/23 02:51:03;;;;;;;;;;;;;;;;;;1033960;28;2115;-52
2023/03/23 02:51:34;;;;;;;;;;;;;;;;;;1032924;28;4244;-54
2023/03/23 02:52:06;;;;;;;;;;;;;;;;;;1032005;28;2665;-52
2023/03/23 02:52:37;;;;;;;;;;;;;;;;;;1033409;28;4030;-52
2023/03/23 02:53:09;;;;;;;;;;;;;;;;;;1031766;28;2604;-54
2023/03/23 02:53:41;;;;;;;;;;;;;;;;;;1030951;28;4059;-52
2023/03/23 02:54:12;;;;;;;;;;;;;;;;;;1034371;28;3134;-53
2023/03/23 02:54:44;;;;;;;;;;;;;;;;;;1033704;28;4250;-53
2023/03/23 02:55:15;;;;;;;;;;;;;;;;;;1033754;28;2227;-55
2023/03/23 02:55:46;;;;;;;;;;;;;;;;;;1032821;28;3826;-54
2023/03/23 02:56:17;;;;;;;;;;;;;;;;;;1032154;28;2814;-50
2023/03/23 02:56:47;;;;;;;;;;;;;;;;;;1035821;28;3908;-55
2023/03/23 02:57:17;;;;;;;;;;;;;;;;;;1031912;28;1942;-52
2023/03/23 02:57:47;;;;;;;;;;;;;;;;;;1033740;28;3738;-51
2023/03/23 02:58:18;;;;;;;;;;;;;;;;;;1033419;28;3003;-53
2023/03/23 02:58:48;;;;;;;;;;;;;;;;;;1032003;28;4200;-52
2023/03/23 02:59:18;;;;;;;;;;;;;;;;;;1032838;28;3018;-55
2023/03/23 02:59:49;;;;;;;;;;;;;;;;;;1032874;28;4063;-54
2023/03/23 03:00:20;;;;;;;;;;;;;;;;;;1032687;28;2653;-53
2023/03/23 03:00:50;;;;;;;;;;;;;;;;;;1035319;28;4006;-50
2023/03/23 03:01:28;;;;;;;;;;;;;;;;;;1033915;28;2792;-52
2023/03/23 03:02:05;;;;;;;;;;;;;;;;;;1032020;28;3714;-50
2023/03/23 03:02:37;;;;;;;;;;;;;;;;;;1030663;28;4029;-50
2023/03/23 03:03:12;;;;;;;;;;;;;;;;;;1033560;28;3009;-53
2023/03/23 03:03:43;;;;;;;;;;;;;;;;;;1034391;28;4211;-52
2023/03/23 03:04:15;;;;;;;;;;;;;;;;;;1032931;28;1709;-52
2023/03/23 03:04:48;;;;;;;;;;;;;;;;;;1033304;28;3913;-52
2023/03/23 03:05:37;;;;;;;;;;;;;;;;;;1035020;28;1919;-54
2023/03/23 03:06:14;;;;;;;;;;;;;;;;;;1031107;28;3999;-55
2023/03/23 03:06:51;;;;;;;;;;;;;;;;;;1034907;28;4011;-53
2023/03/23 03:07:21;;;;;;;;;;;;;;;;;;1033160;28;2944;-55
2023/03/23 03:08:06;;;;;;;;;;;;;;;;;;1031966;28;4010;-52
2023/03/23 03:08:39;;;;;;;;;;;;;;;;;;1032749;28;4066;-52
2023/03/23 03:09:09;;;;;;;;;;;;;;;;;;1032362;28;2752;-52
2023/03/23 03:09:39;;;;;;;;;;;;;;;;;;1032012;28;3917;-55
2023/03/23 03:10:22;;;;;;;;;;;;;;;;;;1030455;28;2807;-52
2023/03/23 03:10:55;;;;;;;;;;;;;;;;;;1033608;28;3957;-52
2023/03/23 03:11:25;;;;;;;;;;;;;;;;;;1034066;28;1697;-53
2023/03/23 03:11:59;;;;;;;;;;;;;;;;;;1033481;28;3926;-54
2023/03/23 03:12:32;;;;;;;;;;;;;;;;;;1031233;28;3994;-52
2023/03/23 03:13:10;;;;;;;;;;;;;;;;;;1034910;28;1780;-51
2023/03/23 03:13:40;;;;;;;;;;;;;;;;;;1032070;28;3911;-54
2023/03/23 03:14:17;;;;;;;;;;;;;;;;;;1033024;28;2799;-53
2023/03/23 03:15:14;;;;;;;;;;;;;;;;;;1032848;28;4010;-55
2023/03/23 03:15:57;;;;;;;;;;;;;;;;;;1025615;28;4186;-52
2023/03/23 03:16:29;;;;;;;;;;;;;;;;;;1028239;28;3929;-53
2023/03/23 03:17:06;;;;;;;;;;;;;;;;;;1032427;28;2744;-52
2023/03/23 03:17:40;;;;;;;;;;;;;;;;;;1032990;28;4045;-52
2023/03/23 03:18:14;;;;;;;;;;;;;;;;;;1033779;28;2810;-53
2023/03/23 03:19:11;;;;;;;;;;;;;;;;;;1032205;28;5033;-52
2023/03/23 03:19:43;;;;;;;;;;;;;;;;;;1033677;28;3928;-54
2023/03/23 03:20:14;;;;;;;;;;;;;;;;;;1031195;28;2678;-52
2023/03/23 03:20:47;;;;;;;;;;;;;;;;;;1032766;28;4064;-50
2023/03/23 03:21:20;;;;;;;;;;;;;;;;;;1033896;28;2009;-55
2023/03/23 03:21:52;;;;;;;;;;;;;;;;;;1033798;28;4024;-53
2023/03/23 03:22:23;;;;;;;;;;;;;;;;;;1035268;28;1657;-52
2023/03/23 03:22:53;;;;;;;;;;;;;;;;;;1032531;28;3878;-55
2023/03/23 03:23:25;;;;;;;;;;;;;;;;;;1033168;28;2693;-55
2023/03/23 03:24:00;;;;;;;;;;;;;;;;;;1034455;28;3777;-55
2023/03/23 03:24:31;;;;;;;;;;;;;;;;;;1032166;28;4017;-54
2023/03/23 03:25:01;;;;;;;;;;;;;;;;;;1030482;28;2835;-55
2023/03/23 03:25:31;;;;;;;;;;;;;;;;;;1036035;28;3876;-51
2023/03/23 03:26:04;;;;;;;;;;;;;;;;;;1033082;28;1842;-54
2023/03/23 03:26:35;;;;;;;;;;;;;;;;;;1033235;28;3863;-52
2023/03/23 03:27:10;;;;;;;;;;;;;;;;;;1031574;28;2855;-55
2023/03/23 03:27:41;;;;;;;;;;;;;;;;;;1035020;28;3812;-53
2023/03/23 03:28:11;;;;;;;;;;;;;;;;;;1031294;28;2733;-52
2023/03/23 03:28:41;;;;;;;;;;;;;;;;;;1033748;28;3880;-54
2023/03/23 03:29:12;;;;;;;;;;;;;;;;;;1033244;28;2946;-53
2023/03/23 03:29:45;;;;;;;;;;;;;;;;;;1030562;28;4100;-51
2023/03/23 03:30:17;;;;;;;;;;;;;;;;;;1028269;28;2924;-53
2023/03/23 03:30:53;;;;;;;;;;;;;;;;;;1030738;28;4268;-51
2023/03/23 03:31:27;;;;;;;;;;;;;;;;;;1034024;28;2098;-54
2023/03/23 03:31:58;;;;;;;;;;;;;;;;;;1035077;28;3685;-55
2023/03/23 03:32:33;;;;;;;;;;;;;;;;;;1031152;28;4074;-51
2023/03/23 03:33:04;;;;;;;;;;;;;;;;;;1032942;28;1947;-55
2023/03/23 03:33:34;;;;;;;;;;;;;;;;;;1033173;28;3998;-51
2023/03/23 03:34:05;;;;;;;;;;;;;;;;;;1033583;28;2879;-55
2023/03/23 03:34:36;;;;;;;;;;;;;;;;;;1033880;28;4292;-53
2023/03/23 03:35:06;;;;;;;;;;;;;;;;;;1032823;28;2932;-53
2023/03/23 03:35:38;;;;;;;;;;;;;;;;;;1035783;28;3816;-53
2023/03/23 03:36:14;;;;;;;;;;;;;;;;;;1033758;28;1877;-54
2023/03/23 03:36:45;;;;;;;;;;;;;;;;;;1033027;28;4026;-52
2023/03/23 03:37:16;;;;;;;;;;;;;;;;;;1031578;28;2792;-53
2023/03/23 03:37:47;;;;;;;;;;;;;;;;;;1034507;28;4052;-53
2023/03/23 03:38:17;;;;;;;;;;;;;;;;;;1029653;28;2662;-54
2023/03/23 03:38:49;;;;;;;;;;;;;;;;;;1033238;28;3956;-52
2023/03/23 03:39:21;;;;;;;;;;;;;;;;;;1033328;28;1829;-52
2023/03/23 03:39:51;;;;;;;;;;;;;;;;;;1035074;28;3973;-53
2023/03/23 03:40:22;;;;;;;;;;;;;;;;;;1030609;28;2822;-55
2023/03/23 03:40:55;;;;;;;;;;;;;;;;;;1034909;28;4172;-51
2023/03/23 03:41:26;;;;;;;;;;;;;;;;;;1033176;28;1922;-51
2023/03/23 03:41:56;;;;;;;;;;;;;;;;;;1037203;28;3887;-54
2023/03/23 03:42:26;;;;;;;;;;;;;;;;;;1034639;28;4073;-52
2023/03/23 03:42:56;;;;;;;;;;;;;;;;;;1037988;28;2825;-55
2023/03/23 03:43:27;;;;;;;;;;;;;;;;;;1035900;28;4019;-52
2023/03/23 03:43:57;;;;;;;;;;;;;;;;;;1038217;28;2727;-52
2023/03/23 03:44:27;;;;;;;;;;;;;;;;;;1035351;28;4059;-50
2023/03/23 03:44:58;;;;;;;;;;;;;;;;;;1038695;28;1726;-51
2023/03/23 03:45:28;;;;;;;;;;;;;;;;;;1036007;28;4010;-50
2023/03/23 03:45:58;;;;;;;;;;;;;;;;;;1038868;28;1319;-52
2023/03/23 03:46:30;;;;;;;;;;;;;;;;;;1037373;28;4179;-54
2023/03/23 03:47:01;;;;;;;;;;;;;;;;;;1038645;28;3274;-53
2023/03/23 03:47:31;;;;;;;;;;;;;;;;;;1035905;28;4070;-54